M I D A S
Marine Information and Data Acquisition System
Tripno 528 of the Zeeleeuw from 2003-07-01 06:19:53 to 2003-07-01 10:12:15
Back to CruiseResearch ActivitiesStationsMapUnderway DataData graphs

EquipmentUnitsComment
TimeDGPSUTC
LatitudeDGPSDM.mWGS84
LongitudeDGPSDM.mWGS84
HeadingGyrodeg 
SOGDGPSknotsSpeed over ground
COGDGPSdegCourse over ground
DepthEcho soundermeters200 kHz
Missing or incorrect values are displayed as -999
Navigation data collected by the RV Zeeleeuw from 2003-07-01 06:19:53 to 2003-07-01 10:12:15
Time Latitude Longitude Heading SOG COG Depth
2003-07-01 06:20:57 51°13.6 2°56.1 121.4   181 6.5
2003-07-01 06:21:57 51°13.6 2°56.1 116.4   193 6.4
2003-07-01 06:22:57 51°13.6 2°56.1 114.2 1 298 6.5
2003-07-01 06:24:01 51°13.62 2°56.02 113.2 4 292 -999
2003-07-01 06:25:01 51°13.65 2°55.91 115.8 4.4 293 -999
2003-07-01 06:26:01 51°13.68 2°55.81 104.3 3.7 288 8.9
2003-07-01 06:26:57 51°13.68 2°55.76 73.2 0.9 286 12.1
2003-07-01 06:27:57 51°13.7 2°55.76 24.3 2.1 8 12.8
2003-07-01 06:28:57 51°13.75 2°55.72 326.6 5.2 319 9.9
2003-07-01 06:29:57 51°13.84 2°55.62 337.7 7.5 334 9.7
2003-07-01 06:30:57 51°13.97 2°55.53 341.1 8.2 337 10.1
2003-07-01 06:31:57 51°14.09 2°55.44 339.6 8.2 335 10
2003-07-01 06:32:57 51°14.21 2°55.33 326.9 8.6 322 10.1
2003-07-01 06:33:57 51°14.32 2°55.15 315.3 10 310 9.9
2003-07-01 06:34:57 51°14.42 2°54.95 302.3 9.3 296 9.6
2003-07-01 06:35:57 51°14.45 2°54.71 279.7 9.2 274 9.3
2003-07-01 06:36:57 51°14.44 2°54.48 266.3 7.9 262 9.6
2003-07-01 06:37:57 51°14.42 2°54.34 235.9 2.7 243 8.6
2003-07-01 06:38:57 51°14.4 2°54.3 209.4 1.5 235 8.5
2003-07-01 06:39:57 51°14.39 2°54.27 189 1.2 231 8.6
2003-07-01 06:40:57 51°14.38 2°54.25 166.1 1 228 8.5
2003-07-01 06:41:57 51°14.33 2°54.22 222.9 5.2 224 8.4
2003-07-01 06:42:57 51°14.27 2°54.05 250 8.6 246 8.2
2003-07-01 06:43:57 51°14.19 2°53.8 243.8 12.5 240 8.1
2003-07-01 06:44:57 51°14.08 2°53.5 243.8 13.1 240 8.3
2003-07-01 06:45:57 51°13.97 2°53.2 243.9 13.2 240 8.6
2003-07-01 06:46:57 51°13.86 2°52.9 244.5 13.2 240 8.9
2003-07-01 06:47:57 51°13.75 2°52.59 244.1 13.2 240 9
2003-07-01 06:48:57 51°13.64 2°52.29 244.5 13.1 241 9.2
2003-07-01 06:49:57 51°13.54 2°51.98 244.1 13.1 241 9.4
2003-07-01 06:50:57 51°13.43 2°51.68 244.3 13.2 241 9.3
2003-07-01 06:51:57 51°13.32 2°51.38 244.4 13.1 241 9.3
2003-07-01 06:52:57 51°13.22 2°51.07 244.4 13.2 241 9.5
2003-07-01 06:53:57 51°13.11 2°50.77 244.6 13.2 241 9.6
2003-07-01 06:54:57 51°13 2°50.46 243.9 13.2 241 9.7
2003-07-01 06:55:57 51°12.9 2°50.15 244.8 13.2 241 9.8
2003-07-01 06:56:57 51°12.79 2°49.85 243.9 13.2 241 9.9
2003-07-01 06:57:57 51°12.68 2°49.54 245.3 13.2 242 10
2003-07-01 06:58:57 51°12.62 2°49.21 263.6 13.2 259 10.4
2003-07-01 06:59:57 51°12.57 2°48.87 262 13.3 256 10.7
2003-07-01 07:00:57 51°12.49 2°48.54 245.3 13.3 242 11
2003-07-01 07:01:57 51°12.38 2°48.24 240.6 13.9 238 11
2003-07-01 07:02:57 51°12.25 2°47.91 241.7 14.9 239 11
2003-07-01 07:03:57 51°12.12 2°47.57 241.7 14.8 239 11.1
2003-07-01 07:04:57 51°12 2°47.23 241.8 14.9 239 11
2003-07-01 07:05:57 51°11.87 2°46.89 242 15 239 10.8
2003-07-01 07:06:57 51°11.75 2°46.55 242.4 14.9 240 10.7
2003-07-01 07:07:57 51°11.62 2°46.21 242.1 14.8 239 10.5
2003-07-01 07:08:57 51°11.5 2°45.87 242 14.8 240 10.1
2003-07-01 07:09:57 51°11.37 2°45.53 242.1 14.9 240 9.8
2003-07-01 07:10:57 51°11.25 2°45.19 242 14.7 239 9.3
2003-07-01 07:11:57 51°11.16 2°44.93 245.5 6.8 242 9.5
2003-07-01 07:12:57 51°11.11 2°44.85 199.5 2.3 217 9.2
2003-07-01 07:13:57 51°11.09 2°44.83 177.8 1.6 204 9.1
2003-07-01 07:14:57 51°11.07 2°44.81 169.8 1.2 200 8.9
2003-07-01 07:15:57 51°11.05 2°44.8 164.7 1.3 191 8.7
2003-07-01 07:16:57 51°11.02 2°44.82 111.6 2.1 124 8.5
2003-07-01 07:17:57 51°11.03 2°44.88 50.3 2.4 39 8.4
2003-07-01 07:18:57 51°11.08 2°44.91 32.3 3.6 20 8.7
2003-07-01 07:19:57 51°11.14 2°44.94 43.7 3.9 31 9.2
2003-07-01 07:20:57 51°11.18 2°44.99 49.3 2.7 37 9.5
2003-07-01 07:21:57 51°11.21 2°45.03 48.4 2 32 9.8
2003-07-01 07:22:57 51°11.24 2°45.05 45.6 1.5 23 10
2003-07-01 07:23:57 51°11.26 2°45.07 64.4 1.4 56 10
2003-07-01 07:24:57 51°11.25 2°45.11 112.5 1.7 131 9.9
2003-07-01 07:25:57 51°11.22 2°45.13 154.1 2.3 173 9.6
2003-07-01 07:26:57 51°11.18 2°45.11 190.1 2.8 204 9.2
2003-07-01 07:27:57 51°11.14 2°45.06 230.6 3.2 233 9.1
2003-07-01 07:28:57 51°11.12 2°44.98 273.3 3.3 263 9
2003-07-01 07:29:57 51°11.13 2°44.89 294.4 3.7 281 9.2
2003-07-01 07:30:57 51°11.14 2°44.79 292.1 4 280 9.6
2003-07-01 07:31:57 51°11.15 2°44.68 285.3 4.2 274 9.9
2003-07-01 07:32:57 51°11.15 2°44.57 267.3 4.2 262 10.1
2003-07-01 07:33:57 51°11.13 2°44.46 253.5 4.2 252 10.1
2003-07-01 07:34:57 51°11.1 2°44.36 248.7 4.3 247 10.2
2003-07-01 07:35:57 51°11.08 2°44.26 260.8 3.2 256 10.1
2003-07-01 07:36:57 51°11.07 2°44.2 257.3 1.6 260 10.3
2003-07-01 07:37:57 51°11.07 2°44.16 268.1 1.4 261 10.2
2003-07-01 07:38:57 51°11.07 2°44.13 277 1.4 266 10.4
2003-07-01 07:39:57 51°11.07 2°44.09 271.7 1.6 264 10.4
2003-07-01 07:40:57 51°11.06 2°44.03 234.3 3.2 238 10.4
2003-07-01 07:41:57 51°11.03 2°43.98 209.1 2.2 226 10.3
2003-07-01 07:42:57 51°11 2°43.94 191.8 1.6 216 10.3
2003-07-01 07:43:57 51°10.99 2°43.92 178.5 1.3 214 10
2003-07-01 07:44:57 51°10.97 2°43.91 167.4 1 210 10
2003-07-01 07:45:57 51°10.96 2°43.9 162.6 1 213 9.9
2003-07-01 07:46:57 51°10.93 2°43.88 183.6 2.7 198 9.7
2003-07-01 07:47:57 51°10.88 2°43.79 250.7 6.5 247 9.5
2003-07-01 07:48:57 51°10.85 2°43.56 263.8 11.7 259 9.4
2003-07-01 07:49:57 51°10.81 2°43.22 264.1 14.1 260 9.6
2003-07-01 07:50:57 51°10.76 2°42.84 263.6 14.6 259 9.9
2003-07-01 07:51:57 51°10.72 2°42.46 263.7 14.6 260 10.3
2003-07-01 07:52:57 51°10.67 2°42.08 264 14.7 260 10.4
2003-07-01 07:53:57 51°10.62 2°41.69 260.7 14.8 257 10.7
2003-07-01 07:54:57 51°10.57 2°41.31 261.1 14.7 257 10.9
2003-07-01 07:55:57 51°10.51 2°40.93 261.2 14.8 257 11
2003-07-01 07:56:57 51°10.46 2°40.55 261 14.7 257 11.3
2003-07-01 07:57:57 51°10.4 2°40.17 261.1 14.7 257 11.7
2003-07-01 07:58:57 51°10.35 2°39.79 261.1 14.7 257 12.2
2003-07-01 07:59:57 51°10.28 2°39.42 255.9 14.7 252 13.1
2003-07-01 08:00:57 51°10.2 2°39.04 255.9 14.7 252 13.7
2003-07-01 08:01:57 51°10.13 2°38.67 255.9 14.8 252 13.9
2003-07-01 08:02:57 51°10.04 2°38.31 251.8 14.9 248 14.9
2003-07-01 08:03:57 51°9.94 2°37.94 248.4 14.8 245 15.2
2003-07-01 08:04:57 51°9.84 2°37.59 249.1 14.9 246 15.1
2003-07-01 08:05:57 51°9.74 2°37.23 248.9 14.9 245 15
2003-07-01 08:06:57 51°9.64 2°36.87 249 14.9 246 14.4
2003-07-01 08:07:57 51°9.53 2°36.51 244.7 15 242 14.8
2003-07-01 08:08:57 51°9.41 2°36.16 245.1 15.1 242 14.9
2003-07-01 08:09:57 51°9.35 2°35.78 283.5 14.7 278 15.4
2003-07-01 08:10:57 51°9.47 2°35.46 327.7 14 318 16.3
2003-07-01 08:11:57 51°9.67 2°35.31 4.1 13.1 353 17.2
2003-07-01 08:12:57 51°9.89 2°35.3 10.3 13.1   15.2
2003-07-01 08:13:57 51°10.1 2°35.37 26.9 12.4 21 9.3
2003-07-01 08:14:57 51°10.28 2°35.53 37.5 12.6 31 10
2003-07-01 08:15:57 51°10.46 2°35.71 37.1 12.5 30 9.1
2003-07-01 08:16:57 51°10.63 2°35.88 36.8 12.5 31 9.5
2003-07-01 08:17:57 51°10.81 2°36.05 37.1 12.5 31 9.9
2003-07-01 08:18:57 51°10.99 2°36.21 36.2 12.5 30 10.2
2003-07-01 08:19:57 51°11.17 2°36.38 36.8 12.5 30 10.4
2003-07-01 08:20:57 51°11.35 2°36.56 39.5 12.5 33 10.4
2003-07-01 08:21:57 51°11.52 2°36.74 39.1 12.5 33 10.6
2003-07-01 08:22:57 51°11.69 2°36.92 39.5 12.5 33 10.8
2003-07-01 08:23:57 51°11.87 2°37.1 39.2 12.6 32 10.7
2003-07-01 08:24:57 51°12.04 2°37.29 39.9 12.5 34 10.8
2003-07-01 08:25:57 51°12.21 2°37.47 39.4 12.5 33 10.6
2003-07-01 08:26:57 51°12.39 2°37.65 38.6 12.5 33 11
2003-07-01 08:27:57 51°12.56 2°37.83 39.5 12.4 34 11.7
2003-07-01 08:28:57 51°12.74 2°38.01 39.5 12.5 34 11.9
2003-07-01 08:29:57 51°12.91 2°38.19 38.8 12.4 31 12.4
2003-07-01 08:30:57 51°13.09 2°38.37 39.1 12.4 32 13
2003-07-01 08:31:57 51°13.26 2°38.55 40.1 12.4 31 13.2
2003-07-01 08:32:57 51°13.45 2°38.69 30.4 12.5 24 13.4
2003-07-01 08:33:57 51°13.64 2°38.82 30.7 12.6 23 13.5
2003-07-01 08:34:57 51°13.85 2°38.88 13.9 12.8 4 12.7
2003-07-01 08:35:57 51°14.06 2°38.84 355.5 13 345 10.4
2003-07-01 08:36:57 51°14.25 2°38.66 324.4 13.8 313 14.4
2003-07-01 08:37:57 51°14.37 2°38.35 296.2 14.2 286 16.8
2003-07-01 08:38:57 51°14.36 2°37.96 260.3 14.9 254 15.5
2003-07-01 08:39:57 51°14.26 2°37.6 244.6 15 241 14.7
2003-07-01 08:40:57 51°14.14 2°37.25 244 15.2 240 14.9
2003-07-01 08:41:57 51°14.02 2°36.9 244.6 15.1 241 16.1
2003-07-01 08:42:57 51°13.9 2°36.54 245.5 15.1 243 17
2003-07-01 08:43:57 51°13.79 2°36.19 245.4 15 242 16.3
2003-07-01 08:44:57 51°13.67 2°35.83 245.9 15.1 243 16.4
2003-07-01 08:45:57 51°13.56 2°35.48 246.3 15.1 243 16.2
2003-07-01 08:46:57 51°13.44 2°35.13 246.2 14.9 242 12.9
2003-07-01 08:47:57 51°13.32 2°34.77 246.2 14.9 242 14.8
2003-07-01 08:48:57 51°13.21 2°34.43 245.6 14.9 241 14.4
2003-07-01 08:49:57 51°13.13 2°34.06 276.6 14.4 270 13
2003-07-01 08:50:57 51°13.23 2°33.73 326.8 13.7 318 16.6
2003-07-01 08:51:57 51°13.43 2°33.6 0.5 13.2 349 22.4
2003-07-01 08:52:57 51°13.64 2°33.63 25.6 12.7 17 21.9
2003-07-01 08:53:57 51°13.84 2°33.75 33.3 12.6 26 21.2
2003-07-01 08:54:57 51°14.03 2°33.9 33.4 12.6 26 21.6
2003-07-01 08:55:57 51°14.22 2°34.04 33.8 12.6 25 22
2003-07-01 08:56:57 51°14.4 2°34.19 33.3 12.5 25 22.7
2003-07-01 08:57:57 51°14.59 2°34.33 33.5 12.5 26 23.6
2003-07-01 08:58:57 51°14.78 2°34.47 33.5 12.4 27 24.6
2003-07-01 08:59:57 51°14.96 2°34.61 33.4 12.4 27 25.4
2003-07-01 09:00:57 51°15.15 2°34.75 32.9 12.3 24 25.6
2003-07-01 09:01:57 51°15.33 2°34.88 33.1 12.2 23 25.1
2003-07-01 09:02:57 51°15.52 2°35.02 33.4 12.3 24 25.6
2003-07-01 09:03:57 51°15.7 2°35.17 36.3 12.1 28 25.4
2003-07-01 09:04:57 51°15.88 2°35.32 36.3 12.1 28 25.3
2003-07-01 09:05:57 51°16.06 2°35.47 36.6 12.2 29 25.7
2003-07-01 09:06:57 51°16.24 2°35.62 37.1 12.1 27 25.3
2003-07-01 09:07:57 51°16.4 2°35.81 51.9 12 45 25.3
2003-07-01 09:08:57 51°16.53 2°36.05 54.6 12.1 49 26
2003-07-01 09:09:57 51°16.66 2°36.29 55.1 12 49 25.2
2003-07-01 09:10:57 51°16.78 2°36.54 55.7 12 49 25.9
2003-07-01 09:11:57 51°16.92 2°36.79 55.7 12 47 27.5
2003-07-01 09:12:57 51°17.05 2°37.03 57.8 12.1 52 26.3
2003-07-01 09:13:57 51°17.11 2°37.33 83.3 12.1 81 26.1
2003-07-01 09:14:57 51°17.16 2°37.64 77.7 12.2 73 25.9
2003-07-01 09:15:57 51°17.21 2°37.95 76.7 12.3 74 25.9
2003-07-01 09:16:57 51°17.27 2°38.26 77.5 12.4 74 25.5
2003-07-01 09:17:57 51°17.33 2°38.56 77.4 11.1 72 25.6
2003-07-01 09:18:57 51°17.38 2°38.84 77.5 11.1 74 23.3
2003-07-01 09:19:57 51°17.43 2°39.12 76.8 11.1 73 19
2003-07-01 09:20:57 51°17.49 2°39.41 76.8 11.1 75 16.9
2003-07-01 09:21:57 51°17.54 2°39.68 75.7 10.9 72 13.7
2003-07-01 09:22:57 51°17.59 2°39.97 77.6 11 75 14.3
2003-07-01 09:23:57 51°17.63 2°40.26 85.1 12.4 85 14.7
2003-07-01 09:24:57 51°17.64 2°40.6 91.4 12.6 93 14
2003-07-01 09:25:57 51°17.62 2°40.93 92.9 12.7 94 21.3
2003-07-01 09:26:57 51°17.62 2°41.27 91.6 12.6 91 22.6
2003-07-01 09:27:57 51°17.61 2°41.61 92.1 12.9 92 23.1
2003-07-01 09:28:57 51°17.61 2°41.95 92 12.8 92 23.6
2003-07-01 09:29:57 51°17.6 2°42.29 91.1 12.9 89 22.8
2003-07-01 09:30:57 51°17.6 2°42.63 90.8 12.4 89 21.1
2003-07-01 09:31:57 51°17.6 2°42.94 90.9 11.4 89 13.1
2003-07-01 09:32:57 51°17.6 2°43.24 92.6 11.4 90 10.2
2003-07-01 09:33:57 51°17.59 2°43.54 105 11.4 107 13.2
2003-07-01 09:34:57 51°17.48 2°43.82 125.6 12.8 129 14.3
2003-07-01 09:35:57 51°17.35 2°44.09 124.2 13 127 15.9
2003-07-01 09:36:57 51°17.22 2°44.36 125.4 13.1 129 15.7
2003-07-01 09:37:57 51°17.09 2°44.64 122.3 13 124 15.3
2003-07-01 09:38:57 51°16.96 2°44.92 123.6 13 126 12.4
2003-07-01 09:39:57 51°16.83 2°45.2 124.8 13.2 128 12.1
2003-07-01 09:40:57 51°16.7 2°45.48 126.3 13.1 126 12.1
2003-07-01 09:41:57 51°16.57 2°45.76 126.5 13.3 128 10.3
2003-07-01 09:42:57 51°16.44 2°46.05 127 13.2 128 9.6
2003-07-01 09:43:57 51°16.31 2°46.33 125.5 13.1 125 9.3
2003-07-01 09:44:57 51°16.19 2°46.63 114.7 13.4 114 12
2003-07-01 09:45:57 51°16.12 2°46.96 104.6 13.5 104 14.1
2003-07-01 09:46:57 51°16.07 2°47.31 106 13.2 106 15.7
2003-07-01 09:47:57 51°16 2°47.65 106.6 13.3 106 15.5
2003-07-01 09:48:57 51°15.94 2°47.99 106.4 13.3 106 14.9
2003-07-01 09:49:57 51°15.88 2°48.32 107.4 13.2 107 13.3
2003-07-01 09:50:57 51°15.81 2°48.66 108 13.2 108 11.5
2003-07-01 09:51:57 51°15.75 2°48.99 106.5 13.1 107 10.5
2003-07-01 09:52:57 51°15.69 2°49.33 104.2 13.3 103 10.9
2003-07-01 09:53:57 51°15.64 2°49.68 102.3 13.4 101 12.6
2003-07-01 09:54:57 51°15.6 2°50.02 103.6 13.3 104 12.8
2003-07-01 09:55:57 51°15.55 2°50.36 103.2 13.1 103 12.7
2003-07-01 09:56:57 51°15.49 2°50.7 105.8 13.1 105 12.8
2003-07-01 09:57:57 51°15.44 2°51.04 105.9 13.3 106 12.6
2003-07-01 09:58:57 51°15.38 2°51.37 104.1 13 103 12.4
2003-07-01 09:59:57 51°15.33 2°51.7 105.3 12.9 105 12.3
2003-07-01 10:00:57 51°15.26 2°52.03 110.3 13.1 111 11.7
2003-07-01 10:01:57 51°15.18 2°52.36 109.1 13.3 109 11.2
2003-07-01 10:02:57 51°15.11 2°52.69 110.3 13.4 111 10.5
2003-07-01 10:03:57 51°15.03 2°53.02 111.1 13.2 112 10.1
2003-07-01 10:04:57 51°14.96 2°53.35 109.7 13 109 9.8
2003-07-01 10:05:57 51°14.89 2°53.65 110.8 11.5 111 9.7
2003-07-01 10:06:57 51°14.82 2°53.93 117.3 11.5 118 9.6
2003-07-01 10:07:57 51°14.72 2°54.19 122 11.6 122 10
2003-07-01 10:08:57 51°14.61 2°54.45 123.7 11.7 124 10
2003-07-01 10:09:57 51°14.51 2°54.71 122.9 11.6 121 10.2
2003-07-01 10:10:57 51°14.41 2°54.97 127.2 11.5 125 10.4
2003-07-01 10:11:57 51°14.29 2°55.2 133.5 9.2 131 11.1